Time;durP1;ratioP1;P1;durP2;ratioP2;P2;SDS_P1;SDS_P2;PMS_P1;PMS_P2;Temp;Humidity;BMP_temperature;BMP_pressure;BME280_temperature;BME280_humidity;BME280_pressure;Samples;Min_cycle;Max_cycle;Signal;HPM_P1;HPM_P2
2022/06/14 00:01:45;;;;;;;16.88;15.27;;;19.50;53.50;;;;;;5007450;28;20051;-80
2022/06/14 00:04:11;;;;;;;18.40;16.77;;;19.40;53.80;;;;;;4995649;28;20030;-80
2022/06/14 00:06:37;;;;;;;16.60;15.48;;;19.30;54.10;;;;;;4997350;28;20236;-80
2022/06/14 00:09:03;;;;;;;16.70;15.40;;;19.30;54.10;;;;;;4983021;28;20041;-80
2022/06/14 00:11:35;;;;;;;17.00;15.85;;;19.20;54.40;;;;;;5003646;28;20045;-80
2022/06/14 00:14:02;;;;;;;17.67;16.02;;;19.10;54.60;;;;;;5010458;28;20038;-79
2022/06/14 00:16:29;;;;;;;18.90;17.13;;;19.10;54.90;;;;;;4992828;28;20511;-80
2022/06/14 00:18:55;;;;;;;18.45;16.85;;;19.10;55.10;;;;;;4998081;28;20061;-80
2022/06/14 00:21:21;;;;;;;18.95;17.45;;;19.00;55.10;;;;;;5004160;28;20025;-80
2022/06/14 00:23:47;;;;;;;18.92;17.63;;;18.90;55.40;;;;;;5003371;28;20026;-80
2022/06/14 00:26:13;;;;;;;18.00;16.55;;;18.80;55.80;;;;;;5010354;28;20038;-80
2022/06/14 00:28:40;;;;;;;17.95;16.52;;;18.70;56.10;;;;;;4992459;28;20053;-80
2022/06/14 00:31:11;;;;;;;16.83;15.35;;;18.60;56.20;;;;;;5022567;28;20034;-80
2022/06/14 00:33:37;;;;;;;;;;;18.50;56.70;;;;;;5020850;28;20049;-80
2022/06/14 00:36:08;;;;;;;16.48;15.05;;;18.50;56.80;;;;;;5002193;28;19917;-80
2022/06/14 00:38:35;;;;;;;14.88;13.57;;;18.60;56.60;;;;;;4997955;28;20034;-80
2022/06/14 00:41:02;;;;;;;14.68;13.48;;;18.60;56.80;;;;;;4995125;28;20037;-80
2022/06/14 00:43:29;;;;;;;13.95;12.60;;;18.70;56.70;;;;;;4994840;28;20049;-80
2022/06/14 00:46:04;;;;;;;14.15;12.90;;;18.70;56.80;;;;;;4995147;28;20046;-80
2022/06/14 00:48:30;;;;;;;13.35;12.32;;;18.50;57.30;;;;;;4997461;28;20034;-80
2022/06/14 00:51:29;;;;;;;13.75;12.60;;;18.40;57.40;;;;;;4997390;28;20034;-80
2022/06/14 00:54:07;;;;;;;14.45;12.60;;;18.60;57.30;;;;;;4967353;28;20039;-80
2022/06/14 00:56:39;;;;;;;13.52;12.40;;;18.50;57.30;;;;;;4952663;28;20058;-79
2022/06/14 00:59:29;;;;;;;13.50;12.32;;;18.50;57.50;;;;;;4982612;28;20111;-79
2022/06/14 01:01:58;;;;;;;13.98;12.60;;;18.50;57.60;;;;;;4966736;28;20046;-80
2022/06/14 01:04:27;;;;;;;14.98;12.50;;;18.60;57.40;;;;;;4967702;28;20032;-80
2022/06/14 01:06:59;;;;;;;13.48;12.25;;;18.60;57.60;;;;;;4968684;28;20391;-80
2022/06/14 01:09:28;;;;;;;13.20;12.02;;;18.60;57.70;;;;;;4983000;28;20054;-80
2022/06/14 01:12:08;;;;;;;13.45;12.05;;;18.60;57.70;;;;;;4982699;28;20027;-80
2022/06/14 01:14:40;;;;;;;13.10;12.05;;;18.60;57.60;;;;;;4985020;28;20049;-79
2022/06/14 01:17:07;;;;;;;13.02;11.80;;;18.60;57.90;;;;;;4982296;28;20477;-80
2022/06/14 01:19:33;;;;;;;13.13;12.18;;;18.30;58.60;;;;;;4984058;28;20508;-79
2022/06/14 01:21:59;;;;;;;13.13;12.02;;;18.20;59.20;;;;;;4985839;28;20039;-80
2022/06/14 01:24:26;;;;;;;14.60;12.98;;;18.00;59.60;;;;;;4966910;28;20062;-80
2022/06/14 01:26:52;;;;;;;13.50;12.20;;;17.90;59.90;;;;;;4982867;28;20516;-80
2022/06/14 01:29:18;;;;;;;13.48;12.13;;;17.90;60.00;;;;;;5001181;28;20049;-79
2022/06/14 01:31:44;;;;;;;13.45;12.07;;;17.80;60.50;;;;;;4975651;28;20435;-80
2022/06/14 01:34:10;;;;;;;13.88;12.52;;;17.70;61.90;;;;;;4994228;28;20037;-80
2022/06/14 01:36:38;;;;;;;13.52;12.35;;;17.70;61.00;;;;;;4992860;28;20037;-80
2022/06/14 01:39:06;;;;;;;13.50;12.32;;;17.70;61.10;;;;;;4992878;28;20048;-79
2022/06/14 01:42:10;;;;;;;14.00;12.43;;;17.70;61.20;;;;;;4987334;28;20050;-79
2022/06/14 01:44:45;;;;;;;13.38;12.23;;;17.50;62.20;;;;;;4997828;28;20050;-79
2022/06/14 01:47:46;;;;;;;12.95;11.95;;;17.40;63.00;;;;;;4997551;28;20483;-80
2022/06/14 01:53:20;;;;;;;15.98;14.27;;;17.10;63.90;;;;;;5011657;28;20497;-80
2022/06/14 01:56:03;;;;;;;17.05;15.75;;;17.20;63.80;;;;;;4993152;28;20038;-79
2022/06/14 01:58:38;;;;;;;18.40;16.95;;;17.20;63.90;;;;;;4991714;28;20037;-80
2022/06/14 02:01:23;;;;;;;15.10;13.60;;;17.20;64.00;;;;;;5009436;28;20041;-79
2022/06/14 02:07:10;;;;;;;14.90;13.63;;;17.10;64.80;;;;;;4962886;28;20038;-79
2022/06/14 02:09:46;;;;;;;14.23;13.18;;;17.00;65.00;;;;;;4977236;28;20491;-79
2022/06/14 02:12:16;;;;;;;16.92;15.48;;;16.80;65.00;;;;;;4960610;28;20452;-79
2022/06/14 02:15:17;;;;;;;16.75;15.52;;;16.80;65.70;;;;;;4948472;28;20510;-80
2022/06/14 02:18:04;;;;;;;11.77;10.65;;;16.80;66.10;;;;;;4970713;28;20531;-79
2022/06/14 02:20:41;;;;;;;12.15;11.02;;;16.70;66.50;;;;;;4984188;28;20044;-79
2022/06/14 02:23:08;;;;;;;12.75;11.48;;;16.80;66.60;;;;;;4958089;28;20042;-79
2022/06/14 02:25:38;;;;;;;13.10;11.90;;;16.80;66.50;;;;;;4990973;28;20049;-79
2022/06/14 02:28:28;;;;;;;12.40;11.40;;;16.70;66.80;;;;;;4972678;28;20037;-79
2022/06/14 02:31:15;;;;;;;13.77;12.68;;;16.60;66.90;;;;;;4962073;28;20429;-80
2022/06/14 02:33:51;;;;;;;14.02;12.82;;;16.70;66.80;;;;;;4989912;28;20050;-79
2022/06/14 02:36:24;;;;;;;13.63;12.43;;;16.70;67.70;;;;;;4960947;28;20034;-80
2022/06/14 02:39:08;;;;;;;14.13;12.65;;;16.60;67.00;;;;;;4992529;28;20053;-79
2022/06/14 02:41:45;;;;;;;13.63;12.50;;;16.80;66.40;;;;;;4983855;28;20037;-80
2022/06/14 02:44:17;;;;;;;13.05;12.05;;;16.70;66.70;;;;;;5005876;28;20034;-79
2022/06/14 02:46:43;;;;;;;14.70;12.70;;;16.70;66.80;;;;;;4989730;28;20039;-79
2022/06/14 02:49:17;;;;;;;14.00;12.57;;;16.50;67.50;;;;;;4993775;28;20396;-80
2022/06/14 02:51:46;;;;;;;13.45;12.30;;;16.50;67.50;;;;;;5003965;28;20040;-79
2022/06/14 02:54:18;;;;;;;13.88;12.65;;;16.50;67.60;;;;;;5001623;28;20364;-79
2022/06/14 02:56:49;;;;;;;13.70;12.25;;;16.50;67.60;;;;;;4991956;28;20570;-79
2022/06/14 02:59:20;;;;;;;15.75;12.45;;;16.40;67.70;;;;;;5001570;28;20035;-79
2022/06/14 03:01:54;;;;;;;;;;;16.40;67.90;;;;;;4989965;28;20053;-79
2022/06/14 03:04:24;;;;;;;13.20;12.20;;;16.40;68.30;;;;;;4992038;28;19913;-79
2022/06/14 03:06:58;;;;;;;12.82;11.55;;;16.40;68.10;;;;;;4993851;28;20365;-79
2022/06/14 03:09:27;;;;;;;13.52;12.35;;;16.40;67.80;;;;;;4999407;28;20030;-79
2022/06/14 03:11:57;;;;;;;13.40;11.93;;;16.40;68.00;;;;;;5001309;28;20021;-79
2022/06/14 03:14:36;;;;;;;14.27;13.13;;;16.30;68.10;;;;;;5000992;28;20501;-80
2022/06/14 03:17:30;;;;;;;13.75;12.60;;;16.30;68.20;;;;;;4990925;28;20041;-79
2022/06/14 03:20:31;;;;;;;13.82;12.57;;;16.30;68.30;;;;;;4998920;28;20041;-79
2022/06/14 03:23:15;;;;;;;13.50;12.32;;;16.20;68.60;;;;;;4996375;28;20030;-79
2022/06/14 03:26:15;;;;;;;13.27;11.90;;;16.10;68.90;;;;;;5011578;28;20041;-79
2022/06/14 03:28:54;;;;;;;13.25;12.15;;;16.00;69.20;;;;;;5008637;28;20038;-79
2022/06/14 03:31:32;;;;;;;13.15;11.85;;;15.90;69.60;;;;;;4978531;28;20503;-79
2022/06/14 03:34:11;;;;;;;13.55;11.90;;;15.90;69.80;;;;;;5014146;28;20045;-79
2022/06/14 03:36:37;;;;;;;13.32;11.50;;;15.80;70.00;;;;;;5006451;28;20037;-79
2022/06/14 03:39:05;;;;;;;12.70;11.70;;;15.80;70.10;;;;;;5004001;28;20360;-79
2022/06/14 03:41:33;;;;;;;15.52;12.40;;;15.80;70.00;;;;;;5004306;28;20403;-79
2022/06/14 03:44:00;;;;;;;13.07;11.77;;;15.90;69.60;;;;;;4992809;28;20046;-79
2022/06/14 03:46:32;;;;;;;13.13;11.90;;;15.90;69.80;;;;;;4992070;28;20491;-79
2022/06/14 03:49:04;;;;;;;13.10;11.52;;;15.80;70.10;;;;;;4991732;28;20049;-79
2022/06/14 03:51:45;;;;;;;12.48;11.43;;;15.80;70.10;;;;;;4997204;28;20030;-79
2022/06/14 03:54:15;;;;;;;12.90;11.80;;;15.80;70.10;;;;;;5004116;28;20037;-79
2022/06/14 03:57:17;;;;;;;12.32;11.20;;;15.70;70.60;;;;;;5007243;28;20034;-79
2022/06/14 04:00:01;;;;;;;11.52;10.73;;;15.60;70.80;;;;;;4956523;28;20045;-79
2022/06/14 04:02:56;;;;;;;12.27;10.95;;;15.50;71.10;;;;;;4967910;28;20034;-79
2022/06/14 04:05:49;;;;;;;11.82;10.82;;;15.50;71.20;;;;;;4968136;28;20035;-79
2022/06/14 04:08:21;;;;;;;11.20;10.20;;;15.50;71.40;;;;;;4968032;28;20245;-79
2022/06/14 04:11:22;;;;;;;12.10;10.90;;;15.50;71.20;;;;;;4968101;28;20039;-79
2022/06/14 04:13:57;;;;;;;;;;;15.50;70.80;;;;;;4899857;29;20414;-79
2022/06/14 04:16:38;;;;;;;14.30;11.48;;;15.60;70.80;;;;;;4912210;28;19939;-79
2022/06/14 04:19:12;;;;;;;12.25;11.05;;;15.70;70.30;;;;;;4894723;29;20044;-79
2022/06/14 04:21:38;;;;;;;12.02;10.95;;;15.70;70.10;;;;;;4896678;29;20044;-80
2022/06/14 04:24:11;;;;;;;12.30;11.25;;;15.70;70.20;;;;;;4894396;28;20394;-79
2022/06/14 04:26:43;;;;;;;12.63;11.35;;;15.70;69.90;;;;;;4914713;29;20031;-79
2022/06/14 04:29:21;;;;;;;13.50;12.18;;;15.90;69.50;;;;;;4910321;28;20032;-79
2022/06/14 04:32:10;;;;;;;14.02;12.60;;;16.00;69.00;;;;;;4909925;29;20040;-79
2022/06/14 04:34:56;;;;;;;13.70;12.40;;;16.10;68.70;;;;;;4872040;29;20376;-79
2022/06/14 04:37:25;;;;;;;13.63;12.18;;;16.00;68.90;;;;;;4841167;29;20049;-79
2022/06/14 04:39:57;;;;;;;13.98;12.82;;;15.80;69.50;;;;;;4843455;29;20503;-80
2022/06/14 04:42:29;;;;;;;14.82;13.32;;;15.90;69.40;;;;;;4841873;29;20041;-80
2022/06/14 04:45:16;;;;;;;14.15;12.95;;;15.90;69.20;;;;;;4855630;29;20040;-80
2022/06/14 04:47:51;;;;;;;14.73;13.43;;;16.00;68.90;;;;;;4862127;29;20169;-80
2022/06/14 04:50:38;;;;;;;14.75;13.23;;;15.90;69.00;;;;;;4856985;29;20052;-80
2022/06/14 04:53:10;;;;;;;13.93;12.52;;;16.00;69.20;;;;;;4928716;29;20043;-80
2022/06/14 04:55:38;;;;;;;;;;;16.00;69.20;;;;;;4931745;29;20078;-80
2022/06/14 04:58:11;;;;;;;13.73;12.70;;;16.00;69.20;;;;;;4948387;29;19906;-80
2022/06/14 05:00:41;;;;;;;14.35;13.15;;;15.90;69.00;;;;;;4931314;28;20044;-80
2022/06/14 05:03:17;;;;;;;14.95;13.60;;;15.90;69.40;;;;;;4923524;29;20433;-80
2022/06/14 05:06:08;;;;;;;14.63;13.38;;;16.00;69.20;;;;;;4929765;29;20036;-80
2022/06/14 05:08:40;;;;;;;14.45;13.20;;;16.10;69.10;;;;;;4944967;28;20027;-80
2022/06/14 05:11:08;;;;;;;15.18;13.60;;;16.20;68.20;;;;;;4946852;28;20382;-80
2022/06/14 05:13:43;;;;;;;14.25;12.82;;;16.30;68.80;;;;;;4996058;28;20026;-80
2022/06/14 05:16:12;;;;;;;14.48;13.00;;;16.40;67.50;;;;;;5007619;28;20391;-80
2022/06/14 05:19:18;;;;;;;12.80;11.63;;;16.50;67.10;;;;;;5018022;28;20038;-80
2022/06/14 05:21:56;;;;;;;12.07;11.10;;;16.70;65.90;;;;;;5037934;28;20038;-80
2022/06/14 05:24:23;;;;;;;13.18;12.02;;;16.80;65.50;;;;;;4999149;28;20018;-81
2022/06/14 05:26:49;;;;;;;13.10;11.80;;;16.80;65.70;;;;;;4998505;28;20397;-81
2022/06/14 05:29:29;;;;;;;12.48;11.50;;;16.90;65.20;;;;;;5009638;28;20026;-81
2022/06/14 05:32:24;;;;;;;13.95;12.85;;;16.90;65.10;;;;;;4976451;28;20034;-81
2022/06/14 05:35:05;;;;;;;13.93;12.75;;;17.00;64.40;;;;;;4992361;28;20038;-81
2022/06/14 05:37:36;;;;;;;14.25;13.10;;;17.20;64.40;;;;;;4991896;28;20030;-81
2022/06/14 05:40:11;;;;;;;16.40;13.90;;;17.30;64.30;;;;;;4996289;28;20030;-81
2022/06/14 05:42:47;;;;;;;16.15;14.77;;;17.40;63.30;;;;;;5002816;28;20037;-81
2022/06/14 05:45:15;;;;;;;15.80;14.38;;;17.50;62.40;;;;;;5001758;28;20470;-81
2022/06/14 05:47:48;;;;;;;15.75;14.65;;;17.50;62.20;;;;;;5002158;28;20033;-81
2022/06/14 05:50:18;;;;;;;15.68;14.38;;;17.50;62.20;;;;;;5001955;28;20030;-81
2022/06/14 05:52:46;;;;;;;17.07;15.53;;;17.50;62.30;;;;;;5005963;28;20034;-82
2022/06/14 05:55:24;;;;;;;16.35;15.05;;;17.70;62.50;;;;;;4993987;28;20030;-82
2022/06/14 05:57:54;;;;;;;15.98;14.93;;;17.70;62.20;;;;;;5003588;28;20030;-82
2022/06/14 06:00:29;;;;;;;16.70;15.38;;;17.90;61.60;;;;;;5001490;28;20029;-82
2022/06/14 06:03:04;;;;;;;17.27;16.20;;;18.00;61.10;;;;;;5001730;28;20037;-82
2022/06/14 06:05:42;;;;;;;19.38;17.52;;;18.20;60.70;;;;;;5004757;28;20037;-82
2022/06/14 06:08:16;;;;;;;19.92;18.23;;;18.30;59.90;;;;;;4994200;28;20036;-82
2022/06/14 06:10:45;;;;;;;20.63;19.23;;;18.50;59.40;;;;;;4990937;28;20371;-82
2022/06/14 06:13:16;;;;;;;22.70;21.00;;;18.50;59.10;;;;;;4996523;28;20029;-82
2022/06/14 06:15:56;;;;;;;23.20;21.38;;;18.60;59.00;;;;;;5004588;28;20521;-82
2022/06/14 06:18:30;;;;;;;24.65;22.85;;;18.80;58.80;;;;;;5001371;28;20030;-82
2022/06/14 06:20:58;;;;;;;24.10;22.50;;;19.00;58.30;;;;;;5001491;28;20049;-82
2022/06/14 06:23:31;;;;;;;24.13;22.45;;;19.10;57.80;;;;;;5001327;28;20041;-82
2022/06/14 06:25:57;;;;;;;24.17;22.65;;;19.10;58.50;;;;;;5006368;28;20041;-82
2022/06/14 06:28:28;;;;;;;24.77;22.98;;;19.20;57.60;;;;;;4992666;28;20372;-82
2022/06/14 06:31:13;;;;;;;;;;;19.30;57.50;;;;;;4992508;28;20082;-82
2022/06/14 06:33:42;;;;;;;24.33;22.65;;;19.50;57.70;;;;;;5004892;28;19917;-82
2022/06/14 06:36:32;;;;;;;24.98;23.17;;;19.40;57.00;;;;;;5001754;28;20029;-82
2022/06/14 06:39:37;;;;;;;25.43;23.53;;;19.40;57.30;;;;;;5000928;28;20038;-82
2022/06/14 06:42:27;;;;;;;25.70;23.60;;;19.50;57.00;;;;;;4997482;28;20292;-82
2022/06/14 06:44:55;;;;;;;25.13;23.63;;;19.70;56.60;;;;;;4988515;28;20038;-82
2022/06/14 06:47:23;;;;;;;26.60;24.92;;;19.90;55.90;;;;;;5000674;28;20026;-82
2022/06/14 06:49:49;;;;;;;25.02;23.30;;;20.00;56.00;;;;;;5005676;28;20030;-82
2022/06/14 06:52:16;;;;;;;23.23;21.55;;;20.00;55.70;;;;;;4994068;28;20027;-82
2022/06/14 06:54:56;;;;;;;20.52;19.23;;;20.10;55.00;;;;;;4998615;28;20023;-82
2022/06/14 06:57:23;;;;;;;17.13;15.55;;;20.10;54.80;;;;;;5003345;28;20029;-82
2022/06/14 06:59:49;;;;;;;15.07;13.73;;;20.10;54.60;;;;;;5005211;28;20022;-82
2022/06/14 07:02:27;;;;;;;15.75;14.60;;;20.10;54.90;;;;;;5004284;28;20050;-82
2022/06/14 07:05:03;;;;;;;15.93;14.43;;;20.20;55.00;;;;;;4994313;28;20502;-82
2022/06/14 07:07:42;;;;;;;15.20;13.88;;;20.30;54.70;;;;;;4995417;28;20357;-82
2022/06/14 07:10:14;;;;;;;14.80;13.60;;;20.50;54.50;;;;;;5008879;28;20041;-82
2022/06/14 07:12:47;;;;;;;14.35;13.18;;;20.60;54.00;;;;;;4999656;28;20041;-82
2022/06/14 07:15:22;;;;;;;15.25;13.93;;;20.70;54.00;;;;;;5005777;28;20046;-82
2022/06/14 07:17:51;;;;;;;16.85;15.80;;;20.80;53.70;;;;;;4996242;28;20298;-82
2022/06/14 07:20:23;;;;;;;15.73;14.30;;;20.90;53.10;;;;;;5004779;28;20400;-82
2022/06/14 07:23:32;;;;;;;16.38;14.75;;;21.00;53.20;;;;;;5009706;28;20038;-82
2022/06/14 07:26:03;;;;;;;17.38;16.48;;;21.20;53.30;;;;;;4955862;28;20051;-83
2022/06/14 07:28:45;;;;;;;;;;;21.30;52.10;;;;;;4955520;28;20038;-82
2022/06/14 07:31:39;;;;;;;15.75;14.18;;;21.30;52.60;;;;;;4955482;28;20367;-83
2022/06/14 07:34:05;;;;;;;16.35;15.07;;;21.30;52.60;;;;;;4977904;28;20039;-82
2022/06/14 07:36:38;;;;;;;17.42;16.10;;;21.40;52.40;;;;;;4952726;28;20047;-83
2022/06/14 07:39:11;;;;;;;20.52;19.25;;;21.60;52.00;;;;;;4938869;28;20487;-82
2022/06/14 07:42:06;;;;;;;19.58;18.25;;;21.80;51.80;;;;;;4952678;28;20508;-83
2022/06/14 07:45:00;;;;;;;21.08;19.15;;;21.90;50.90;;;;;;4952575;28;20047;-82
2022/06/14 07:47:29;;;;;;;20.58;19.15;;;22.10;50.70;;;;;;4952857;28;20051;-82
2022/06/14 07:50:02;;;;;;;21.02;19.52;;;22.30;50.30;;;;;;4952735;28;20104;-82
2022/06/14 07:52:51;;;;;;;19.63;18.23;;;22.50;50.10;;;;;;4955440;28;20046;-82
2022/06/14 07:55:41;;;;;;;21.13;19.30;;;22.50;49.90;;;;;;4949889;28;20039;-83
2022/06/14 07:58:21;;;;;;;20.92;19.73;;;22.70;49.90;;;;;;4951945;28;20043;-83
2022/06/14 08:03:36;;;;;;;22.88;21.30;;;23.00;48.60;;;;;;4977483;28;20514;-83
2022/06/14 08:06:04;;;;;;;22.50;21.15;;;23.10;48.60;;;;;;4999452;28;20042;-82
2022/06/14 08:08:33;;;;;;;20.58;19.23;;;23.10;48.20;;;;;;4996728;28;20038;-83
2022/06/14 08:11:44;;;;;;;24.48;23.02;;;23.20;48.70;;;;;;5008420;28;20026;-83
2022/06/14 08:14:23;;;;;;;20.80;19.23;;;23.40;47.80;;;;;;4978000;28;20047;-83
2022/06/14 08:16:52;;;;;;;20.80;19.45;;;23.50;47.50;;;;;;4954120;28;20826;-83
2022/06/14 08:19:42;;;;;;;23.70;22.20;;;23.50;46.70;;;;;;4970866;28;20034;-83
2022/06/14 08:22:12;;;;;;;21.17;19.63;;;23.60;47.00;;;;;;4936623;29;20051;-82
2022/06/14 08:24:47;;;;;;;22.33;20.85;;;23.50;47.40;;;;;;4959569;28;20035;-83
2022/06/14 08:27:13;;;;;;;21.50;19.70;;;23.60;47.10;;;;;;4954231;28;20035;-82
2022/06/14 08:29:44;;;;;;;21.70;20.23;;;23.70;47.70;;;;;;4959391;28;20508;-83
2022/06/14 08:32:14;;;;;;;20.65;18.95;;;23.90;46.80;;;;;;4975041;28;20435;-83
2022/06/14 08:34:41;;;;;;;21.33;19.92;;;24.10;45.70;;;;;;4955070;28;20361;-83
2022/06/14 08:37:27;;;;;;;21.33;19.73;;;24.20;46.00;;;;;;4951497;28;20050;-83
2022/06/14 08:39:57;;;;;;;20.88;19.33;;;24.30;46.10;;;;;;4969497;28;20058;-83
2022/06/14 08:42:45;;;;;;;20.92;19.48;;;24.60;44.90;;;;;;4986123;28;20050;-83
2022/06/14 08:45:12;;;;;;;23.38;21.83;;;24.80;45.20;;;;;;4952722;28;20027;-83
2022/06/14 08:47:39;;;;;;;20.20;18.90;;;25.00;43.90;;;;;;4998811;28;20046;-83
2022/06/14 08:50:42;;;;;;;20.67;19.27;;;24.90;43.50;;;;;;4995309;28;20037;-83
2022/06/14 08:53:53;;;;;;;20.08;18.75;;;24.60;43.50;;;;;;4995580;28;20048;-82
2022/06/14 08:56:46;;;;;;;25.45;23.58;;;24.50;43.60;;;;;;4984527;28;20034;-83
2022/06/14 08:59:43;;;;;;;21.02;19.08;;;24.60;43.00;;;;;;4997584;28;20053;-83
2022/06/14 09:02:44;;;;;;;20.30;18.90;;;24.60;42.90;;;;;;4996674;28;20052;-83
2022/06/14 09:05:18;;;;;;;22.00;19.80;;;24.50;43.60;;;;;;4931688;29;20036;-83
2022/06/14 09:07:58;;;;;;;20.02;18.65;;;24.70;42.50;;;;;;4915367;28;20031;-83
2022/06/14 09:10:27;;;;;;;21.13;19.52;;;25.00;42.60;;;;;;4915694;29;20508;-83
2022/06/14 09:13:15;;;;;;;22.63;21.08;;;25.20;43.00;;;;;;4898506;29;20039;-83
2022/06/14 09:16:00;;;;;;;20.88;19.48;;;25.20;41.60;;;;;;4914001;29;20055;-83
2022/06/14 09:18:38;;;;;;;22.02;20.10;;;25.00;41.30;;;;;;4931134;29;20039;-83
2022/06/14 09:21:16;;;;;;;19.55;18.25;;;25.00;41.60;;;;;;4930980;29;20078;-83
2022/06/14 09:23:50;;;;;;;20.23;18.70;;;24.90;41.70;;;;;;4915386;29;20840;-83
2022/06/14 09:26:27;;;;;;;24.60;23.05;;;25.20;42.30;;;;;;4914699;29;20047;-83
2022/06/14 09:29:12;;;;;;;22.33;20.70;;;25.50;41.10;;;;;;4930764;29;20044;-83
2022/06/14 09:31:43;;;;;;;21.27;20.00;;;25.40;40.50;;;;;;4930396;29;20224;-83
2022/06/14 09:34:23;;;;;;;;;;;25.40;40.90;;;;;;4917411;29;20044;-83
2022/06/14 09:37:19;;;;;;;19.75;18.40;;;25.40;41.10;;;;;;4931469;29;20317;-83
2022/06/14 09:40:12;;;;;;;20.33;19.10;;;25.30;41.80;;;;;;4921290;28;20044;-83
2022/06/14 09:42:53;;;;;;;22.33;20.80;;;25.40;41.60;;;;;;4992392;28;20042;-83
2022/06/14 09:45:41;;;;;;;23.05;21.48;;;25.60;41.00;;;;;;4996447;28;20026;-83
2022/06/14 09:48:43;;;;;;;25.80;24.20;;;25.70;40.60;;;;;;4998125;28;20484;-84
2022/06/14 09:51:18;;;;;;;25.75;23.65;;;26.00;40.20;;;;;;4998467;28;20029;-82
2022/06/14 09:54:17;;;;;;;23.65;22.08;;;26.10;39.70;;;;;;5003788;28;20034;-83
2022/06/14 09:56:49;;;;;;;25.77;23.83;;;26.20;39.20;;;;;;4997587;28;20049;-84
2022/06/14 09:59:35;;;;;;;21.98;20.58;;;26.00;39.90;;;;;;4990885;28;20033;-83
2022/06/14 10:02:32;;;;;;;22.25;20.75;;;26.20;39.80;;;;;;5007906;28;20041;-83
2022/06/14 10:05:35;;;;;;;24.98;23.33;;;26.20;39.10;;;;;;4965782;28;20043;-84
2022/06/14 10:08:02;;;;;;;24.40;22.45;;;26.20;38.90;;;;;;4966493;28;20027;-84
2022/06/14 10:10:31;;;;;;;25.20;23.60;;;26.30;39.40;;;;;;4967936;28;20049;-82
2022/06/14 10:13:24;;;;;;;24.10;22.50;;;26.30;38.60;;;;;;4968604;28;20046;-82
2022/06/14 10:16:18;;;;;;;517.72;266.75;;;26.40;38.30;;;;;;4949619;28;20510;-82
2022/06/14 10:19:09;;;;;;;1999.90;999.90;;;26.40;37.90;;;;;;4936465;29;20444;-82
2022/06/14 10:21:43;;;;;;;1999.90;999.90;;;26.40;38.20;;;;;;4930106;29;20412;-82
2022/06/14 10:24:17;;;;;;;1999.90;999.90;;;26.30;38.20;;;;;;4931132;29;20035;-82
2022/06/14 10:29:47;;;;;;;1999.90;999.90;;;26.60;39.20;;;;;;4936506;29;20031;-82
2022/06/14 10:32:31;;;;;;;1999.90;999.90;;;26.50;38.90;;;;;;4946515;28;20478;-82
2022/06/14 10:35:09;;;;;;;1999.90;999.90;;;26.60;38.30;;;;;;4946915;29;20047;-82
2022/06/14 10:37:46;;;;;;;1999.90;999.90;;;26.60;39.10;;;;;;4932042;29;20073;-82
2022/06/14 10:40:37;;;;;;;1999.90;999.90;;;26.80;38.80;;;;;;4946164;29;20339;-83
2022/06/14 10:43:12;;;;;;;;;;;27.00;37.80;;;;;;4930287;29;20054;-83
2022/06/14 10:45:43;;;;;;;1999.90;999.90;;;27.00;37.40;;;;;;4952513;28;19925;-83
2022/06/14 10:48:18;;;;;;;1999.90;999.90;;;27.00;37.30;;;;;;4931009;28;20034;-83
2022/06/14 10:50:54;;;;;;;1999.90;999.90;;;27.00;36.60;;;;;;4948551;28;20563;-83
2022/06/14 10:53:46;;;;;;;1999.90;999.90;;;27.00;36.90;;;;;;4984844;28;20045;-83
2022/06/14 10:56:43;;;;;;;1999.90;999.90;;;27.00;37.20;;;;;;4994870;28;20037;-83
2022/06/14 10:59:15;;;;;;;1999.90;999.90;;;27.00;36.90;;;;;;4995807;28;20490;-83
2022/06/14 11:01:52;;;;;;;1999.90;999.90;;;27.10;37.50;;;;;;4991364;28;20058;-83
2022/06/14 11:04:24;;;;;;;1999.90;999.90;;;27.20;36.80;;;;;;4992227;28;20041;-83
2022/06/14 11:07:26;;;;;;;1999.90;999.90;;;27.30;36.40;;;;;;4994483;28;20031;-83
2022/06/14 11:10:12;;;;;;;1999.90;999.90;;;27.40;34.30;;;;;;4989512;28;20046;-83
2022/06/14 11:13:01;;;;;;;1999.90;999.90;;;27.40;35.60;;;;;;4992132;28;20034;-83
2022/06/14 11:15:38;;;;;;;1999.90;999.90;;;27.60;35.50;;;;;;5007821;28;20053;-83
2022/06/14 11:18:32;;;;;;;1999.90;999.90;;;27.70;36.20;;;;;;4997461;28;20036;-82
2022/06/14 11:21:07;;;;;;;1999.90;999.90;;;27.70;35.70;;;;;;5000896;28;20041;-83
2022/06/14 11:23:45;;;;;;;1999.90;999.90;;;27.70;35.60;;;;;;4994515;28;20042;-83
2022/06/14 11:26:37;;;;;;;1999.90;999.90;;;27.60;34.90;;;;;;5002101;28;20046;-83
2022/06/14 11:29:19;;;;;;;1999.90;999.90;;;27.60;34.90;;;;;;4994422;28;20046;-83
2022/06/14 11:31:49;;;;;;;1999.90;999.90;;;27.60;35.90;;;;;;4990216;28;20479;-83
2022/06/14 11:34:48;;;;;;;1999.90;999.90;;;27.90;36.50;;;;;;4989581;28;20061;-83
2022/06/14 11:37:32;;;;;;;1999.90;999.90;;;27.90;35.00;;;;;;5002699;28;20049;-83
2022/06/14 11:40:03;;;;;;;1999.90;999.90;;;27.90;34.50;;;;;;4996859;28;20026;-83
2022/06/14 11:42:31;;;;;;;1999.90;999.90;;;27.70;34.40;;;;;;4987768;28;20058;-83
2022/06/14 11:45:19;;;;;;;1999.90;999.90;;;27.80;34.40;;;;;;5004538;28;20025;-83
2022/06/14 11:48:17;;;;;;;1999.90;999.90;;;27.80;33.10;;;;;;5003985;28;20483;-83
2022/06/14 11:50:49;;;;;;;1999.90;999.90;;;27.80;33.50;;;;;;5003889;28;20380;-82
2022/06/14 11:53:18;;;;;;;1999.90;999.90;;;27.80;33.90;;;;;;4998672;28;20033;-83
2022/06/14 11:56:10;;;;;;;1999.90;999.90;;;27.80;33.30;;;;;;4994442;28;20482;-82
2022/06/14 11:58:55;;;;;;;1999.90;999.90;;;27.80;33.70;;;;;;5002792;28;20053;-83
2022/06/14 12:01:35;;;;;;;1999.90;999.90;;;27.90;33.60;;;;;;4993151;28;20034;-83
2022/06/14 12:04:29;;;;;;;1999.90;999.90;;;28.00;34.70;;;;;;4997373;28;20042;-83
2022/06/14 12:07:09;;;;;;;1999.90;999.90;;;28.10;33.60;;;;;;5011294;28;20506;-83
2022/06/14 12:09:54;;;;;;;1999.90;999.90;;;28.20;29.90;;;;;;5030128;28;20034;-83
2022/06/14 12:12:29;;;;;;;1999.90;999.90;;;28.20;30.90;;;;;;5000195;28;20038;-83
2022/06/14 12:15:04;;;;;;;1999.90;999.90;;;28.30;30.50;;;;;;5001036;28;20053;-83
2022/06/14 12:17:45;;;;;;;1999.90;999.90;;;28.20;32.30;;;;;;4994163;28;20399;-83
2022/06/14 12:20:17;;;;;;;1999.90;999.90;;;28.20;32.20;;;;;;5004182;28;20027;-83
2022/06/14 12:22:59;;;;;;;1999.90;999.90;;;28.30;29.30;;;;;;4978074;28;20501;-83
2022/06/14 12:28:30;;;;;;;1999.90;999.90;;;28.20;31.70;;;;;;5003771;28;20054;-83
2022/06/14 12:31:03;;;;;;;1999.90;999.90;;;28.20;30.90;;;;;;4997269;28;20034;-83
2022/06/14 12:33:32;;;;;;;1999.90;999.90;;;28.20;31.70;;;;;;5002279;28;20523;-83
2022/06/14 12:36:35;;;;;;;1999.90;999.90;;;28.30;31.40;;;;;;4994211;28;20046;-83
2022/06/14 12:39:11;;;;;;;1999.90;999.90;;;28.30;30.50;;;;;;5003873;28;20041;-82
2022/06/14 12:42:08;;;;;;;1999.90;999.90;;;28.20;30.20;;;;;;4994296;28;20037;-83
2022/06/14 12:44:39;;;;;;;1999.90;999.90;;;28.30;30.70;;;;;;4967878;28;20058;-82
2022/06/14 12:47:08;;;;;;;1999.90;999.90;;;28.50;30.50;;;;;;4967365;28;20400;-83
2022/06/14 12:49:37;;;;;;;1999.90;999.90;;;28.50;30.70;;;;;;4951377;28;20054;-83
2022/06/14 12:52:04;;;;;;;1999.90;999.90;;;28.50;30.40;;;;;;4970820;28;20030;-82
2022/06/14 12:54:49;;;;;;;1999.90;999.90;;;28.70;29.80;;;;;;4957468;28;20031;-83
2022/06/14 12:57:18;;;;;;;1999.90;999.90;;;28.80;29.10;;;;;;4938484;28;20050;-83
2022/06/14 12:59:51;;;;;;;1999.90;999.90;;;28.80;30.30;;;;;;4954117;28;20057;-83
2022/06/14 13:02:31;;;;;;;1999.90;999.90;;;28.90;29.80;;;;;;4950885;28;20062;-83
2022/06/14 13:05:10;;;;;;;1999.90;999.90;;;28.80;29.90;;;;;;4951380;28;20034;-82
2022/06/14 13:08:06;;;;;;;1999.90;999.90;;;28.90;29.40;;;;;;4951935;28;20047;-83
2022/06/14 13:10:53;;;;;;;1999.90;999.90;;;28.80;29.90;;;;;;4968775;28;20037;-83
2022/06/14 13:14:10;;;;;;;1999.90;999.90;;;28.90;30.90;;;;;;4967203;28;20039;-83
2022/06/14 13:16:54;;;;;;;1999.90;999.90;;;28.90;30.60;;;;;;4922249;28;20044;-83
2022/06/14 13:19:22;;;;;;;1999.90;999.90;;;29.00;30.90;;;;;;4902857;29;20137;-83
2022/06/14 13:22:14;;;;;;;1999.90;999.90;;;29.10;29.70;;;;;;4914437;29;20389;-83
2022/06/14 13:24:59;;;;;;;1999.90;999.90;;;29.00;28.30;;;;;;4949082;29;20507;-83
2022/06/14 13:27:30;;;;;;;1999.90;999.90;;;29.00;29.10;;;;;;4937255;28;20526;-83
2022/06/14 13:30:27;;;;;;;1999.90;999.90;;;29.20;28.70;;;;;;4947985;28;20054;-83
2022/06/14 13:33:36;;;;;;;1999.90;999.90;;;29.20;29.00;;;;;;4916231;29;20439;-83